Time;durP1;ratioP1;P1;durP2;ratioP2;P2;SDS_P1;SDS_P2;PMS_P1;PMS_P2;Temp;Humidity;BMP_temperature;BMP_pressure;BME280_temperature;BME280_humidity;BME280_pressure;Samples;Min_cycle;Max_cycle;Signal;HPM_P1;HPM_P2
2022/10/03 03:14:57;;;;;;;1999.90;999.90;;;;;;;;;;5058345;23;20252;-67
2022/10/03 03:17:48;;;;;;;1999.90;999.90;;;;;;;;;;4974386;28;20208;-68
2022/10/03 03:20:54;;;;;;;1999.90;999.90;;;;;;;;;;4978690;28;20414;-67
2022/10/03 03:23:51;;;;;;;1999.90;999.90;;;;;;;;;;4974995;28;21011;-66
2022/10/03 03:26:52;;;;;;;1999.90;999.90;;;;;;;;;;4987506;28;20221;-65
2022/10/03 03:29:42;;;;;;;1999.90;999.90;;;;;;;;;;4993427;28;20216;-67
2022/10/03 03:32:32;;;;;;;1999.90;999.90;;;;;;;;;;4987999;28;20216;-67
2022/10/03 03:35:26;;;;;;;1999.90;999.90;;;;;;;;;;4977532;28;20632;-67
2022/10/03 03:38:17;;;;;;;1999.90;999.90;;;;;;;;;;4981135;28;20971;-66
2022/10/03 03:41:12;;;;;;;1999.90;999.90;;;;;;;;;;4975842;28;20207;-67
2022/10/03 03:44:05;;;;;;;1999.90;999.90;;;;;;;;;;4972798;28;20352;-66
2022/10/03 03:47:01;;;;;;;1999.90;999.90;;;;;;;;;;4993071;28;20273;-67
2022/10/03 03:50:02;;;;;;;1999.90;999.90;;;;;;;;;;4993509;28;20322;-65
2022/10/03 03:52:57;;;;;;;1999.90;999.90;;;;;;;;;;4994774;28;20583;-65
2022/10/03 03:55:52;;;;;;;1999.90;999.90;;;;;;;;;;4989680;28;20227;-64
2022/10/03 03:58:39;;;;;;;1999.90;999.90;;;;;;;;;;4975467;28;20235;-66
2022/10/03 04:01:39;;;;;;;1999.90;999.90;;;;;;;;;;4975490;28;20207;-65
2022/10/03 04:04:33;;;;;;;1999.90;999.90;;;;;;;;;;4967301;28;20228;-66
2022/10/03 04:07:27;;;;;;;1999.90;999.90;;;;;;;;;;4974561;28;20214;-65
2022/10/03 04:10:17;;;;;;;1999.90;999.90;;;;;;;;;;4975207;28;20226;-66
2022/10/03 04:13:16;;;;;;;1999.90;999.90;;;;;;;;;;4975050;28;20435;-68
2022/10/03 04:16:10;;;;;;;1999.90;999.90;;;;;;;;;;4974489;28;20625;-67
2022/10/03 04:18:58;;;;;;;1999.90;999.90;;;;;;;;;;4975090;28;20582;-67
2022/10/03 04:22:02;;;;;;;1999.90;999.90;;;;;;;;;;4974225;28;20204;-66
2022/10/03 04:25:00;;;;;;;1999.90;999.90;;;;;;;;;;4972921;28;20291;-67
2022/10/03 04:27:52;;;;;;;1999.90;999.90;;;;;;;;;;4974943;28;20207;-67
2022/10/03 04:30:45;;;;;;;1999.90;999.90;;;;;;;;;;4974745;28;20265;-67
2022/10/03 04:33:34;;;;;;;1999.90;999.90;;;;;;;;;;4967590;28;20307;-67
2022/10/03 04:36:28;;;;;;;1999.90;999.90;;;;;;;;;;4974180;28;20242;-67
2022/10/03 04:39:17;;;;;;;1999.90;999.90;;;;;;;;;;4974822;28;20284;-67
2022/10/03 04:42:08;;;;;;;1999.90;999.90;;;;;;;;;;4974541;28;20215;-67
2022/10/03 04:45:02;;;;;;;1999.90;999.90;;;;;;;;;;4974570;28;20200;-67
2022/10/03 04:47:51;;;;;;;1999.90;999.90;;;;;;;;;;4974283;28;20435;-67
2022/10/03 04:50:39;;;;;;;1999.90;999.90;;;;;;;;;;4966500;28;20210;-67
2022/10/03 04:53:29;;;;;;;1999.90;999.90;;;;;;;;;;4972213;28;20318;-67
2022/10/03 04:56:22;;;;;;;1999.90;999.90;;;;;;;;;;4980857;28;20259;-67
2022/10/03 04:59:26;;;;;;;1999.90;999.90;;;;;;;;;;4981074;28;20695;-67
2022/10/03 05:02:21;;;;;;;1999.90;999.90;;;;;;;;;;4980097;28;20326;-67
2022/10/03 05:05:19;;;;;;;1999.90;999.90;;;;;;;;;;4983503;28;20696;-67
2022/10/03 05:08:12;;;;;;;1999.90;999.90;;;;;;;;;;4988880;28;20196;-67
2022/10/03 05:11:04;;;;;;;1999.90;999.90;;;;;;;;;;4977537;28;20214;-67
2022/10/03 05:13:53;;;;;;;1999.90;999.90;;;;;;;;;;4984138;28;20258;-67
2022/10/03 05:16:42;;;;;;;1999.90;999.90;;;;;;;;;;4982610;28;20693;-67
2022/10/03 05:19:40;;;;;;;1999.90;999.90;;;;;;;;;;4981753;28;20222;-67
2022/10/03 05:22:40;;;;;;;1999.90;999.90;;;;;;;;;;4980821;28;20266;-67
2022/10/03 05:25:29;;;;;;;1999.90;999.90;;;;;;;;;;4980280;28;20270;-67
2022/10/03 05:28:17;;;;;;;1999.90;999.90;;;;;;;;;;4984468;28;20278;-67
2022/10/03 05:31:06;;;;;;;1999.90;999.90;;;;;;;;;;4985063;28;20214;-67
2022/10/03 05:33:54;;;;;;;1999.90;999.90;;;;;;;;;;4984438;28;20302;-67
2022/10/03 05:36:57;;;;;;;1999.90;999.90;;;;;;;;;;4976175;28;20331;-67
2022/10/03 05:39:45;;;;;;;1999.90;999.90;;;;;;;;;;4977454;28;20300;-67
2022/10/03 05:42:45;;;;;;;1999.90;999.90;;;;;;;;;;4983441;28;20421;-67
2022/10/03 05:45:36;;;;;;;1999.90;999.90;;;;;;;;;;4980102;28;20705;-67
2022/10/03 05:48:27;;;;;;;1999.90;999.90;;;;;;;;;;4946572;29;20232;-67
2022/10/03 05:51:35;;;;;;;1999.90;999.90;;;;;;;;;;4967899;28;20262;-67
2022/10/03 05:54:34;;;;;;;1999.90;999.90;;;;;;;;;;4972989;28;20617;-67
2022/10/03 05:57:35;;;;;;;1999.90;999.90;;;;;;;;;;4973314;28;20207;-67
2022/10/03 06:00:21;;;;;;;1999.90;999.90;;;;;;;;;;4964568;28;20918;-67
2022/10/03 06:03:19;;;;;;;1999.90;999.90;;;;;;;;;;4973181;28;20629;-67
2022/10/03 06:06:12;;;;;;;1999.90;999.90;;;;;;;;;;4973075;28;20585;-67
2022/10/03 06:09:24;;;;;;;1999.90;999.90;;;;;;;;;;4973261;28;20286;-67
2022/10/03 06:12:13;;;;;;;1999.90;999.90;;;;;;;;;;4973250;28;20207;-67
2022/10/03 06:15:14;;;;;;;1999.90;999.90;;;;;;;;;;4973164;28;20777;-67
2022/10/03 06:18:10;;;;;;;1999.90;999.90;;;;;;;;;;4973069;28;20206;-67
2022/10/03 06:21:08;;;;;;;1999.90;999.90;;;;;;;;;;4973189;28;20210;-67
2022/10/03 06:24:14;;;;;;;1999.90;999.90;;;;;;;;;;4973074;28;20243;-67
2022/10/03 06:27:20;;;;;;;1999.90;999.90;;;;;;;;;;4973131;28;20246;-67
2022/10/03 06:30:11;;;;;;;1999.90;999.90;;;;;;;;;;4963322;28;20223;-67
2022/10/03 06:33:16;;;;;;;1999.90;999.90;;;;;;;;;;4977235;28;20243;-67
2022/10/03 06:36:21;;;;;;;1999.90;999.90;;;;;;;;;;4976615;28;20230;-67
2022/10/03 06:39:21;;;;;;;1999.90;999.90;;;;;;;;;;4976912;28;20273;-67
2022/10/03 06:42:21;;;;;;;1999.90;999.90;;;;;;;;;;4976728;28;20222;-67
2022/10/03 06:45:21;;;;;;;1999.90;999.90;;;;;;;;;;4976320;28;20227;-67
2022/10/03 06:48:14;;;;;;;1999.90;999.90;;;;;;;;;;4959700;28;20219;-67
2022/10/03 06:51:17;;;;;;;1999.90;999.90;;;;;;;;;;4980920;28;20227;-68
2022/10/03 06:54:13;;;;;;;1999.90;999.90;;;;;;;;;;4979381;28;20474;-67
2022/10/03 06:57:19;;;;;;;1999.90;999.90;;;;;;;;;;4995807;28;20228;-67
2022/10/03 07:00:14;;;;;;;1999.90;999.90;;;;;;;;;;4984085;28;20348;-68
2022/10/03 07:03:23;;;;;;;1999.90;999.90;;;;;;;;;;4986108;28;20230;-68
2022/10/03 07:06:26;;;;;;;1999.90;999.90;;;;;;;;;;4961794;28;20207;-67
2022/10/03 07:09:30;;;;;;;1999.90;999.90;;;;;;;;;;4992419;28;20611;-68
2022/10/03 07:12:34;;;;;;;1999.90;999.90;;;;;;;;;;4986569;28;20217;-68
2022/10/03 07:15:32;;;;;;;1999.90;999.90;;;;;;;;;;4975866;28;20324;-68
2022/10/03 07:18:37;;;;;;;1999.90;999.90;;;;;;;;;;4968901;28;20214;-67
2022/10/03 07:21:30;;;;;;;1999.90;999.90;;;;;;;;;;4971497;28;20215;-67
2022/10/03 07:24:26;;;;;;;1999.90;999.90;;;;;;;;;;4971093;28;20601;-67
2022/10/03 07:27:24;;;;;;;1999.90;999.90;;;;;;;;;;4987321;28;20263;-67
2022/10/03 07:30:16;;;;;;;1999.90;999.90;;;;;;;;;;4985897;28;20211;-68
2022/10/03 07:33:22;;;;;;;1999.90;999.90;;;;;;;;;;4979018;28;20224;-68
2022/10/03 07:39:34;;;;;;;1999.90;999.90;;;;;;;;;;4970817;28;20208;-67
2022/10/03 07:42:37;;;;;;;1999.90;999.90;;;;;;;;;;4974284;28;20215;-68
2022/10/03 07:45:29;;;;;;;1999.90;999.90;;;;;;;;;;4979741;28;20207;-68
2022/10/03 07:48:37;;;;;;;1999.90;999.90;;;;;;;;;;4974644;28;20738;-68
2022/10/03 07:51:23;;;;;;;1999.90;999.90;;;;;;;;;;4968745;28;20219;-67
2022/10/03 07:54:38;;;;;;;1999.90;999.90;;;;;;;;;;4981623;28;20235;-67
2022/10/03 07:57:38;;;;;;;1999.90;999.90;;;;;;;;;;4895163;29;20215;-67
2022/10/03 08:00:26;;;;;;;1999.90;999.90;;;;;;;;;;4976380;28;20224;-65
2022/10/03 08:03:29;;;;;;;1999.90;999.90;;;;;;;;;;4973521;28;20213;-67
2022/10/03 08:06:18;;;;;;;1999.90;999.90;;;;;;;;;;4975961;28;20223;-68
2022/10/03 08:09:27;;;;;;;1999.90;999.90;;;;;;;;;;4979251;28;20212;-68
2022/10/03 08:12:20;;;;;;;1999.90;999.90;;;;;;;;;;4968723;28;20220;-67
2022/10/03 08:15:09;;;;;;;1999.90;999.90;;;;;;;;;;4975855;28;20749;-67
2022/10/03 08:18:10;;;;;;;1999.90;999.90;;;;;;;;;;4977965;28;20335;-68
2022/10/03 08:20:56;;;;;;;1999.90;999.90;;;;;;;;;;4974887;28;20258;-68
2022/10/03 08:24:05;;;;;;;1999.90;999.90;;;;;;;;;;4973577;28;20433;-68
2022/10/03 08:27:14;;;;;;;1999.90;999.90;;;;;;;;;;4978723;28;20220;-67
2022/10/03 08:30:09;;;;;;;1999.90;999.90;;;;;;;;;;4974019;28;20585;-68
2022/10/03 08:33:00;;;;;;;1999.90;999.90;;;;;;;;;;4972865;28;20232;-68
2022/10/03 08:36:02;;;;;;;1999.90;999.90;;;;;;;;;;4982403;28;20234;-68
2022/10/03 08:38:55;;;;;;;1999.90;999.90;;;;;;;;;;4985761;28;20258;-69
2022/10/03 08:42:02;;;;;;;1999.90;999.90;;;;;;;;;;4980046;28;20680;-69
2022/10/03 08:45:10;;;;;;;1999.90;999.90;;;;;;;;;;4943764;28;20220;-69
2022/10/03 08:48:29;;;;;;;1999.90;999.90;;;;;;;;;;4955212;29;20208;-69
2022/10/03 08:51:40;;;;;;;1999.90;999.90;;;;;;;;;;4971811;28;20217;-68
2022/10/03 08:54:45;;;;;;;1999.90;999.90;;;;;;;;;;4976439;28;20740;-67
2022/10/03 08:57:46;;;;;;;1999.90;999.90;;;;;;;;;;4976226;28;20254;-67
2022/10/03 09:00:36;;;;;;;1999.90;999.90;;;;;;;;;;4974380;28;20664;-68
2022/10/03 09:03:40;;;;;;;1999.90;999.90;;;;;;;;;;4984102;28;20308;-67
2022/10/03 09:06:43;;;;;;;1999.90;999.90;;;;;;;;;;4983506;28;20207;-68
2022/10/03 09:09:45;;;;;;;1999.90;999.90;;;;;;;;;;4974129;28;20701;-67
2022/10/03 09:12:51;;;;;;;1999.90;999.90;;;;;;;;;;4973899;28;20222;-68
2022/10/03 09:15:55;;;;;;;1999.90;999.90;;;;;;;;;;4972411;28;20563;-68
2022/10/03 09:18:47;;;;;;;1999.90;999.90;;;;;;;;;;4973868;28;20206;-67
2022/10/03 09:21:44;;;;;;;1999.90;999.90;;;;;;;;;;4973909;28;20211;-67
2022/10/03 09:35:16;;;;;;;1999.90;999.90;;;;;;;;;;5109094;27;21095;-66
2022/10/03 09:38:20;;;;;;;1999.90;999.90;;;;;;;;;;5109314;28;20227;-66
2022/10/03 09:41:20;;;;;;;1999.90;999.90;;;;;;;;;;5109555;28;20289;-66
2022/10/03 09:44:32;;;;;;;1999.90;999.90;;;;;;;;;;5105652;28;20227;-66
2022/10/03 09:47:47;;;;;;;1999.90;999.90;;;;;;;;;;5109387;28;20206;-66
2022/10/03 09:50:50;;;;;;;1999.90;999.90;;;;;;;;;;5109259;28;20489;-66
2022/10/03 09:53:54;;;;;;;1999.90;999.90;;;;;;;;;;5109267;28;20592;-66
2022/10/03 09:56:53;;;;;;;1999.90;999.90;;;;;;;;;;5088701;28;20216;-66
2022/10/03 09:59:48;;;;;;;1999.90;999.90;;;;;;;;;;5088933;28;20286;-66
2022/10/03 10:03:00;;;;;;;1999.90;999.90;;;;;;;;;;5090019;28;20228;-66
2022/10/03 10:06:03;;;;;;;1999.90;999.90;;;;;;;;;;5106992;28;20725;-66
2022/10/03 10:09:04;;;;;;;1999.90;999.90;;;;;;;;;;5107176;28;20571;-66
2022/10/03 10:12:00;;;;;;;1999.90;999.90;;;;;;;;;;5106888;28;21543;-66
2022/10/03 10:14:58;;;;;;;1999.90;999.90;;;;;;;;;;5104579;28;20219;-66
2022/10/03 10:17:56;;;;;;;1999.90;999.90;;;;;;;;;;5106812;28;20234;-66
2022/10/03 10:20:59;;;;;;;1999.90;999.90;;;;;;;;;;5105256;28;20253;-66
2022/10/03 10:23:50;;;;;;;1999.90;999.90;;;;;;;;;;5105721;28;20215;-66
2022/10/03 10:26:59;;;;;;;1999.90;999.90;;;;;;;;;;5104316;28;20195;-66
2022/10/03 10:29:59;;;;;;;1999.90;999.90;;;;;;;;;;5056934;28;20210;-66
2022/10/03 10:32:58;;;;;;;1999.90;999.90;;;;;;;;;;5105953;28;20257;-66
2022/10/03 10:35:58;;;;;;;1999.90;999.90;;;;;;;;;;5093620;28;20689;-67
2022/10/03 10:39:00;;;;;;;1999.90;999.90;;;;;;;;;;5065242;28;20724;-67
2022/10/03 10:42:04;;;;;;;1999.90;999.90;;;;;;;;;;5089953;28;20212;-66
2022/10/03 10:45:08;;;;;;;1999.90;999.90;;;;;;;;;;5091006;28;20426;-65
2022/10/03 10:48:25;;;;;;;1999.90;999.90;;;;;;;;;;5091496;28;20412;-66
2022/10/03 10:51:37;;;;;;;1999.90;999.90;;;;;;;;;;5091343;28;20270;-66
2022/10/03 10:54:43;;;;;;;1999.90;999.90;;;;;;;;;;5093627;28;20289;-66
2022/10/03 10:57:44;;;;;;;1999.90;999.90;;;;;;;;;;5094378;28;20203;-66
2022/10/03 11:00:38;;;;;;;1999.90;999.90;;;;;;;;;;5094510;28;20282;-66
2022/10/03 11:03:47;;;;;;;1999.90;999.90;;;;;;;;;;5093990;28;20228;-66
2022/10/03 11:06:52;;;;;;;1999.90;999.90;;;;;;;;;;5081954;28;20297;-67
2022/10/03 11:09:45;;;;;;;1999.90;999.90;;;;;;;;;;5094337;28;20668;-66
2022/10/03 11:12:46;;;;;;;1999.90;999.90;;;;;;;;;;5094172;28;20196;-66
2022/10/03 11:15:53;;;;;;;1999.90;999.90;;;;;;;;;;5093663;28;20256;-68
2022/10/03 11:18:58;;;;;;;1999.90;999.90;;;;;;;;;;5073951;28;20205;-67
2022/10/03 11:22:03;;;;;;;1999.90;999.90;;;;;;;;;;5073906;28;20204;-66
2022/10/03 11:25:13;;;;;;;1999.90;999.90;;;;;;;;;;5081543;28;20215;-68
2022/10/03 11:28:31;;;;;;;1999.90;999.90;;;;;;;;;;5073779;28;20209;-66
2022/10/03 11:31:31;;;;;;;1999.90;999.90;;;;;;;;;;5073718;28;20200;-69
2022/10/03 11:34:35;;;;;;;1999.90;999.90;;;;;;;;;;5091767;28;20398;-66
2022/10/03 11:37:29;;;;;;;1999.90;999.90;;;;;;;;;;5093726;28;20577;-68
2022/10/03 11:40:31;;;;;;;1999.90;999.90;;;;;;;;;;5093763;28;20196;-65
2022/10/03 11:43:34;;;;;;;1999.90;999.90;;;;;;;;;;5093263;28;20274;-66
2022/10/03 11:46:28;;;;;;;1999.90;999.90;;;;;;;;;;5092129;28;20203;-66
2022/10/03 11:49:23;;;;;;;1999.90;999.90;;;;;;;;;;5093222;28;20242;-66
2022/10/03 11:52:13;;;;;;;1999.90;999.90;;;;;;;;;;5092386;28;20432;-69
2022/10/03 11:55:05;;;;;;;1999.90;999.90;;;;;;;;;;5093130;28;20254;-67
2022/10/03 11:57:56;;;;;;;1999.90;999.90;;;;;;;;;;5093381;28;20566;-68
2022/10/03 12:00:43;;;;;;;1999.90;999.90;;;;;;;;;;5093351;28;20270;-68
2022/10/03 12:03:30;;;;;;;1999.90;999.90;;;;;;;;;;5092893;28;20228;-68
2022/10/03 12:09:27;;;;;;;1999.90;999.90;;;;;;;;;;5093220;28;20195;-67
2022/10/03 12:12:14;;;;;;;1999.90;999.90;;;;;;;;;;5093053;28;20639;-67
2022/10/03 12:15:03;;;;;;;1999.90;999.90;;;;;;;;;;5092769;28;20204;-67
2022/10/03 12:17:51;;;;;;;1999.90;999.90;;;;;;;;;;5093039;28;20204;-67
2022/10/03 12:20:49;;;;;;;1999.90;999.90;;;;;;;;;;5092953;28;20226;-67
2022/10/03 12:23:56;;;;;;;1999.90;999.90;;;;;;;;;;5092757;28;20224;-67
2022/10/03 12:26:46;;;;;;;1999.90;999.90;;;;;;;;;;5092592;28;20270;-68
2022/10/03 12:29:33;;;;;;;1999.90;999.90;;;;;;;;;;5092767;28;20322;-68
2022/10/03 12:32:26;;;;;;;1999.90;999.90;;;;;;;;;;5092728;28;20208;-68
2022/10/03 12:35:18;;;;;;;1999.90;999.90;;;;;;;;;;5091283;28;21082;-67
2022/10/03 12:38:13;;;;;;;1999.90;999.90;;;;;;;;;;5087239;28;20203;-68
2022/10/03 12:41:04;;;;;;;1999.90;999.90;;;;;;;;;;5091285;28;20592;-67
2022/10/03 12:44:04;;;;;;;1999.90;999.90;;;;;;;;;;5090806;28;20227;-68
2022/10/03 12:46:54;;;;;;;1999.90;999.90;;;;;;;;;;5083805;28;20290;-68
2022/10/03 12:49:46;;;;;;;1999.90;999.90;;;;;;;;;;5079944;28;20283;-67
2022/10/03 12:52:33;;;;;;;1999.90;999.90;;;;;;;;;;5083841;28;20208;-67
2022/10/03 12:55:24;;;;;;;1999.90;999.90;;;;;;;;;;5082741;28;20281;-67
2022/10/03 12:58:15;;;;;;;1999.90;999.90;;;;;;;;;;5089699;28;20262;-68
2022/10/03 13:01:06;;;;;;;1999.90;999.90;;;;;;;;;;5086216;28;20792;-68
2022/10/03 13:03:53;;;;;;;1999.90;999.90;;;;;;;;;;5087654;28;20228;-67
2022/10/03 13:06:52;;;;;;;1999.90;999.90;;;;;;;;;;5079252;28;20698;-68
2022/10/03 13:09:49;;;;;;;1999.90;999.90;;;;;;;;;;5087772;28;20222;-68
2022/10/03 13:12:38;;;;;;;1999.90;999.90;;;;;;;;;;5082852;28;20602;-67
2022/10/03 13:15:37;;;;;;;1999.90;999.90;;;;;;;;;;5087390;28;20284;-69
2022/10/03 13:18:29;;;;;;;1999.90;999.90;;;;;;;;;;5080767;28;20207;-68
2022/10/03 13:21:17;;;;;;;1999.90;999.90;;;;;;;;;;5086865;28;20231;-67
2022/10/03 13:24:06;;;;;;;1999.90;999.90;;;;;;;;;;5077362;28;20223;-67
2022/10/03 13:26:54;;;;;;;1999.90;999.90;;;;;;;;;;5087378;28;20301;-69
2022/10/03 13:29:41;;;;;;;1999.90;999.90;;;;;;;;;;5078931;28;20224;-68
2022/10/03 13:32:30;;;;;;;1999.90;999.90;;;;;;;;;;5084794;28;20576;-68
2022/10/03 13:38:51;;;;;;;1999.90;999.90;;;;;;;;;;5079217;28;20275;-68
2022/10/03 13:41:51;;;;;;;1999.90;999.90;;;;;;;;;;5078923;28;20213;-68
2022/10/03 13:44:38;;;;;;;1999.90;999.90;;;;;;;;;;5085088;28;20606;-68
2022/10/03 13:47:31;;;;;;;1999.90;999.90;;;;;;;;;;5083981;28;20304;-68
2022/10/03 13:50:18;;;;;;;1999.90;999.90;;;;;;;;;;5086544;28;20330;-67
2022/10/03 13:53:06;;;;;;;1999.90;999.90;;;;;;;;;;5088388;28;20251;-68
2022/10/03 13:55:55;;;;;;;1999.90;999.90;;;;;;;;;;5085560;28;20279;-68
2022/10/03 13:58:45;;;;;;;1999.90;999.90;;;;;;;;;;5084137;28;20310;-68
2022/10/03 14:01:37;;;;;;;1999.90;999.90;;;;;;;;;;5085171;28;20275;-68
2022/10/03 14:04:37;;;;;;;1999.90;999.90;;;;;;;;;;5078867;28;20228;-67
2022/10/03 14:07:26;;;;;;;1999.90;999.90;;;;;;;;;;5077923;28;20657;-68
2022/10/03 14:10:36;;;;;;;1999.90;999.90;;;;;;;;;;5091018;28;20406;-67
2022/10/03 14:13:23;;;;;;;1999.90;999.90;;;;;;;;;;5079911;28;20605;-68
2022/10/03 14:16:13;;;;;;;1999.90;999.90;;;;;;;;;;5093037;28;20646;-68
2022/10/03 14:19:02;;;;;;;1999.90;999.90;;;;;;;;;;5092593;28;20285;-68
2022/10/03 14:21:58;;;;;;;1999.90;999.90;;;;;;;;;;5089729;28;20212;-68
2022/10/03 14:24:51;;;;;;;1999.90;999.90;;;;;;;;;;5091975;28;20628;-68
2022/10/03 14:27:49;;;;;;;1999.90;999.90;;;;;;;;;;5093808;28;20199;-68
2022/10/03 14:30:38;;;;;;;1999.90;999.90;;;;;;;;;;5088191;28;20207;-67
2022/10/03 14:33:29;;;;;;;1999.90;999.90;;;;;;;;;;5085648;28;20235;-68
2022/10/03 14:36:22;;;;;;;1999.90;999.90;;;;;;;;;;5091841;28;20601;-68
2022/10/03 14:39:20;;;;;;;1999.90;999.90;;;;;;;;;;5085459;28;20208;-68
2022/10/03 14:42:12;;;;;;;1999.90;999.90;;;;;;;;;;5093100;28;20200;-67
2022/10/03 14:44:59;;;;;;;1999.90;999.90;;;;;;;;;;5092082;28;20293;-68
2022/10/03 14:47:48;;;;;;;1999.90;999.90;;;;;;;;;;5081644;28;20212;-67
2022/10/03 14:50:38;;;;;;;1999.90;999.90;;;;;;;;;;5086766;28;20218;-68
2022/10/03 14:53:28;;;;;;;1999.90;999.90;;;;;;;;;;5086832;28;20486;-68
2022/10/03 14:56:14;;;;;;;1999.90;999.90;;;;;;;;;;5092815;28;20213;-68
2022/10/03 14:59:01;;;;;;;1999.90;999.90;;;;;;;;;;5087819;28;20801;-68
2022/10/03 15:01:48;;;;;;;1999.90;999.90;;;;;;;;;;5087520;28;20203;-68
2022/10/03 15:04:35;;;;;;;1999.90;999.90;;;;;;;;;;5082549;28;20252;-69
2022/10/03 15:07:32;;;;;;;1999.90;999.90;;;;;;;;;;5081596;28;20334;-67
2022/10/03 15:10:19;;;;;;;1999.90;999.90;;;;;;;;;;5094341;28;20199;-68
2022/10/03 15:13:08;;;;;;;1999.90;999.90;;;;;;;;;;5085876;28;20235;-67
2022/10/03 15:15:55;;;;;;;1999.90;999.90;;;;;;;;;;5090390;28;20305;-67
2022/10/03 15:18:41;;;;;;;1999.90;999.90;;;;;;;;;;5087965;28;20850;-67
2022/10/03 15:21:27;;;;;;;1999.90;999.90;;;;;;;;;;5087756;28;20591;-68
2022/10/03 15:24:18;;;;;;;1999.90;999.90;;;;;;;;;;5087268;28;20226;-66
2022/10/03 15:27:04;;;;;;;1999.90;999.90;;;;;;;;;;5083678;28;20204;-68
2022/10/03 15:29:51;;;;;;;1999.90;999.90;;;;;;;;;;5091319;28;20584;-68
2022/10/03 15:32:38;;;;;;;1999.90;999.90;;;;;;;;;;5087586;28;20822;-67
2022/10/03 15:35:25;;;;;;;1999.90;999.90;;;;;;;;;;5089084;28;20196;-68
2022/10/03 15:38:12;;;;;;;1999.90;999.90;;;;;;;;;;5087370;28;20207;-67
2022/10/03 15:41:08;;;;;;;1999.90;999.90;;;;;;;;;;5088331;28;20208;-67
2022/10/03 15:43:55;;;;;;;1999.90;999.90;;;;;;;;;;5092218;28;20290;-68
2022/10/03 15:46:43;;;;;;;1999.90;999.90;;;;;;;;;;5079518;28;20577;-67
2022/10/03 15:49:30;;;;;;;1999.90;999.90;;;;;;;;;;5085832;28;20265;-68
2022/10/03 15:52:17;;;;;;;1999.90;999.90;;;;;;;;;;5085783;28;20250;-68
2022/10/03 15:55:04;;;;;;;1999.90;999.90;;;;;;;;;;5091268;28;20702;-67
2022/10/03 15:57:51;;;;;;;1999.90;999.90;;;;;;;;;;5089754;28;20204;-66
2022/10/03 16:00:36;;;;;;;1999.90;999.90;;;;;;;;;;5089537;28;20211;-67
2022/10/03 16:03:28;;;;;;;1999.90;999.90;;;;;;;;;;5090883;28;20235;-65
2022/10/03 16:06:17;;;;;;;1999.90;999.90;;;;;;;;;;5084993;28;20277;-66
2022/10/03 16:09:04;;;;;;;1999.90;999.90;;;;;;;;;;5086365;28;20475;-66
2022/10/03 16:11:53;;;;;;;1999.90;999.90;;;;;;;;;;5080718;28;20302;-67
2022/10/03 16:14:42;;;;;;;1999.90;999.90;;;;;;;;;;5086906;28;20374;-67
2022/10/03 16:17:33;;;;;;;1999.90;999.90;;;;;;;;;;5084552;28;20207;-66
2022/10/03 16:20:20;;;;;;;1999.90;999.90;;;;;;;;;;5091094;28;20203;-67
2022/10/03 16:23:10;;;;;;;1999.90;999.90;;;;;;;;;;5092003;28;20231;-66
2022/10/03 16:25:56;;;;;;;1999.90;999.90;;;;;;;;;;5089569;28;20219;-65
2022/10/03 16:28:43;;;;;;;1999.90;999.90;;;;;;;;;;5091955;28;20409;-66
2022/10/03 16:31:33;;;;;;;1999.90;999.90;;;;;;;;;;5089023;28;20211;-67
2022/10/03 16:34:20;;;;;;;1999.90;999.90;;;;;;;;;;5092141;28;20224;-66
2022/10/03 16:37:15;;;;;;;1999.90;999.90;;;;;;;;;;5090315;28;20207;-67
2022/10/03 16:40:01;;;;;;;1999.90;999.90;;;;;;;;;;5087279;28;20204;-67
2022/10/03 16:42:47;;;;;;;1999.90;999.90;;;;;;;;;;5092392;28;20228;-67
2022/10/03 16:45:34;;;;;;;1999.90;999.90;;;;;;;;;;5085941;28;20243;-67
2022/10/03 16:51:26;;;;;;;1999.90;999.90;;;;;;;;;;5079986;28;20208;-68
2022/10/03 16:54:13;;;;;;;1999.90;999.90;;;;;;;;;;5089959;28;20227;-68
2022/10/03 16:56:59;;;;;;;1999.90;999.90;;;;;;;;;;5087747;28;20208;-67
2022/10/03 16:59:47;;;;;;;1999.90;999.90;;;;;;;;;;5084860;28;20283;-66
2022/10/03 17:02:32;;;;;;;1999.90;999.90;;;;;;;;;;5090081;28;20224;-67
2022/10/03 17:05:19;;;;;;;1999.90;999.90;;;;;;;;;;5090298;28;20301;-67
2022/10/03 17:08:06;;;;;;;1999.90;999.90;;;;;;;;;;5091849;28;20211;-67
2022/10/03 17:10:53;;;;;;;1999.90;999.90;;;;;;;;;;5084069;28;20713;-67
2022/10/03 17:13:41;;;;;;;1999.90;999.90;;;;;;;;;;5080161;28;20721;-67
2022/10/03 17:16:32;;;;;;;1999.90;999.90;;;;;;;;;;5084442;28;20211;-67
2022/10/03 17:19:27;;;;;;;1999.90;999.90;;;;;;;;;;5087695;28;20496;-67
2022/10/03 17:22:16;;;;;;;1999.90;999.90;;;;;;;;;;5082401;28;20469;-67
2022/10/03 17:25:03;;;;;;;1999.90;999.90;;;;;;;;;;5087919;28;20620;-67
2022/10/03 17:27:49;;;;;;;1999.90;999.90;;;;;;;;;;5092052;28;20210;-67
2022/10/03 17:30:37;;;;;;;1999.90;999.90;;;;;;;;;;5083066;28;20218;-66
2022/10/03 17:33:25;;;;;;;1999.90;999.90;;;;;;;;;;5083822;28;20231;-67
2022/10/03 17:36:31;;;;;;;1999.90;999.90;;;;;;;;;;5084209;28;20245;-67
2022/10/03 17:39:22;;;;;;;1999.90;999.90;;;;;;;;;;5063208;28;20429;-66
2022/10/03 17:42:13;;;;;;;1999.90;999.90;;;;;;;;;;5079703;28;20697;-66
2022/10/03 17:45:05;;;;;;;1999.90;999.90;;;;;;;;;;5079382;28;20726;-65
2022/10/03 17:47:55;;;;;;;1999.90;999.90;;;;;;;;;;5092768;28;20207;-65
2022/10/03 17:50:47;;;;;;;1999.90;999.90;;;;;;;;;;5075462;28;20576;-65
2022/10/03 17:53:35;;;;;;;1999.90;999.90;;;;;;;;;;5089316;28;20224;-66
2022/10/03 17:56:24;;;;;;;1999.90;999.90;;;;;;;;;;5086523;28;20204;-65
2022/10/03 17:59:12;;;;;;;1999.90;999.90;;;;;;;;;;5094359;28;20208;-65
2022/10/03 18:02:01;;;;;;;1999.90;999.90;;;;;;;;;;5088634;28;20211;-65
2022/10/03 18:04:49;;;;;;;1999.90;999.90;;;;;;;;;;5095221;28;20576;-66
2022/10/03 18:07:35;;;;;;;1999.90;999.90;;;;;;;;;;5080429;28;20693;-66
2022/10/03 18:10:21;;;;;;;1999.90;999.90;;;;;;;;;;5083219;28;20216;-66
2022/10/03 18:13:13;;;;;;;1999.90;999.90;;;;;;;;;;5082402;28;20228;-66
2022/10/03 18:16:03;;;;;;;1999.90;999.90;;;;;;;;;;5085361;28;20576;-65
2022/10/03 18:19:05;;;;;;;1999.90;999.90;;;;;;;;;;5090663;28;20203;-66
2022/10/03 18:21:57;;;;;;;1999.90;999.90;;;;;;;;;;5090605;28;20334;-66
2022/10/03 18:24:54;;;;;;;1999.90;999.90;;;;;;;;;;5075238;28;20212;-65
2022/10/03 18:27:51;;;;;;;1999.90;999.90;;;;;;;;;;5091749;28;20428;-66
2022/10/03 18:30:44;;;;;;;1999.90;999.90;;;;;;;;;;5089649;28;20231;-66
2022/10/03 18:33:32;;;;;;;1999.90;999.90;;;;;;;;;;5090665;28;20284;-66
2022/10/03 18:36:18;;;;;;;1999.90;999.90;;;;;;;;;;5085895;28;20571;-65
2022/10/03 18:39:07;;;;;;;1999.90;999.90;;;;;;;;;;5092722;28;20788;-66
2022/10/03 18:41:57;;;;;;;1999.90;999.90;;;;;;;;;;5086153;28;20215;-66
2022/10/03 18:44:44;;;;;;;1999.90;999.90;;;;;;;;;;5086724;28;20212;-66
2022/10/03 18:47:33;;;;;;;1999.90;999.90;;;;;;;;;;5087540;28;20801;-66
2022/10/03 18:50:24;;;;;;;1999.90;999.90;;;;;;;;;;5084802;28;20211;-66
2022/10/03 18:53:15;;;;;;;1999.90;999.90;;;;;;;;;;5090881;28;20350;-66
2022/10/03 18:56:02;;;;;;;1999.90;999.90;;;;;;;;;;5085048;28;20207;-66
2022/10/03 18:58:53;;;;;;;1999.90;999.90;;;;;;;;;;5092284;28;20207;-65
2022/10/03 19:01:50;;;;;;;1999.90;999.90;;;;;;;;;;5087146;28;20215;-66
2022/10/03 19:04:39;;;;;;;1999.90;999.90;;;;;;;;;;5091460;28;20338;-66
2022/10/03 19:07:26;;;;;;;1999.90;999.90;;;;;;;;;;5089035;28;20593;-66
2022/10/03 19:10:21;;;;;;;1999.90;999.90;;;;;;;;;;5090760;28;20206;-66
2022/10/03 19:13:15;;;;;;;1999.90;999.90;;;;;;;;;;5093610;28;20231;-66
2022/10/03 19:16:05;;;;;;;1999.90;999.90;;;;;;;;;;5090381;28;20226;-67
2022/10/03 19:18:57;;;;;;;1999.90;999.90;;;;;;;;;;5092066;28;20281;-66
2022/10/03 19:21:43;;;;;;;1999.90;999.90;;;;;;;;;;5075243;28;20257;-67
2022/10/03 19:24:31;;;;;;;1999.90;999.90;;;;;;;;;;5091524;28;20241;-66
2022/10/03 19:27:18;;;;;;;1999.90;999.90;;;;;;;;;;5088286;28;20651;-66
2022/10/03 19:30:06;;;;;;;1999.90;999.90;;;;;;;;;;5093975;28;20265;-67
2022/10/03 19:32:53;;;;;;;1999.90;999.90;;;;;;;;;;5085418;28;20613;-66
2022/10/03 19:35:41;;;;;;;1999.90;999.90;;;;;;;;;;5085479;28;20234;-66
2022/10/03 19:38:32;;;;;;;1999.90;999.90;;;;;;;;;;5086560;28;20210;-66
2022/10/03 19:41:23;;;;;;;1999.90;999.90;;;;;;;;;;5091729;28;20208;-66
2022/10/03 19:44:09;;;;;;;1999.90;999.90;;;;;;;;;;5091002;28;20265;-65
2022/10/03 19:47:04;;;;;;;1999.90;999.90;;;;;;;;;;5089193;28;20228;-66
2022/10/03 19:49:54;;;;;;;1999.90;999.90;;;;;;;;;;5093366;28;20215;-66